createdAt,value
2022-08-12T00:00:20.004Z,101804.53
2022-08-12T00:03:10.298Z,101807.22
2022-08-12T00:06:07.443Z,101802.78
2022-08-12T00:08:59.079Z,101807.06
2022-08-12T00:11:49.992Z,101805.97
2022-08-12T00:14:41.191Z,101805.69
2022-08-12T00:17:32.037Z,101807.19
2022-08-12T00:20:23.252Z,101799.06
2022-08-12T00:23:13.592Z,101789.91
2022-08-12T00:26:23.101Z,101794.13
2022-08-12T00:29:14.761Z,101793.81
2022-08-12T00:32:05.494Z,101798.78
2022-08-12T00:34:55.666Z,101786.09
2022-08-12T00:37:45.848Z,101798.25
2022-08-12T00:40:36.201Z,101806.00
2022-08-12T00:43:13.220Z,101802.41
2022-08-12T00:46:03.990Z,101798.72
2022-08-12T00:48:38.137Z,101789.81
2022-08-12T00:51:11.634Z,101795.88
2022-08-12T00:53:44.589Z,101799.97
2022-08-12T00:56:18.912Z,101789.31
2022-08-12T00:58:54.392Z,101790.00
2022-08-12T01:01:27.992Z,101789.78
2022-08-12T01:04:39.123Z,101795.06
2022-08-12T01:07:32.572Z,101786.19
2022-08-12T01:10:27.541Z,101791.28
2022-08-12T01:13:18.808Z,101788.53
2022-08-12T01:15:56.413Z,101786.78
2022-08-12T01:18:31.330Z,101787.81
2022-08-12T01:21:13.160Z,101782.41
2022-08-12T01:24:30.481Z,101780.59
2022-08-12T01:27:08.440Z,101787.50
2022-08-12T01:29:44.894Z,101785.69
2022-08-12T01:32:21.614Z,101786.53
2022-08-12T01:35:02.920Z,101787.38
2022-08-12T01:37:38.327Z,101785.56
2022-08-12T01:40:34.312Z,101780.00
2022-08-12T01:43:09.513Z,101784.94
2022-08-12T01:45:48.483Z,101783.13
2022-08-12T01:48:30.085Z,101772.53
2022-08-12T01:51:10.660Z,101768.09
2022-08-12T01:54:04.274Z,101768.03
2022-08-12T01:56:46.513Z,101768.72
2022-08-12T01:59:50.709Z,101766.69
2022-08-12T02:02:29.012Z,101770.03
2022-08-12T02:05:28.617Z,101777.09
2022-08-12T02:08:36.062Z,101766.41
2022-08-12T02:11:18.286Z,101781.19
2022-08-12T02:14:03.554Z,101773.78
2022-08-12T02:16:55.343Z,101778.81
2022-08-12T02:19:43.585Z,101773.50
2022-08-12T02:22:28.559Z,101773.34
2022-08-12T02:25:09.394Z,101777.50
2022-08-12T02:27:45.732Z,101777.50
2022-08-12T02:30:20.498Z,101769.69
2022-08-12T02:32:56.377Z,101768.78
2022-08-12T02:35:31.989Z,101769.47
2022-08-12T02:38:07.513Z,101769.09
2022-08-12T02:40:43.128Z,101766.19
2022-08-12T02:43:27.358Z,101763.41
2022-08-12T02:46:04.451Z,101775.75
2022-08-12T02:48:50.404Z,101766.84
2022-08-12T02:51:26.932Z,101769.72
2022-08-12T02:54:05.479Z,101764.44
2022-08-12T02:56:41.796Z,101767.84
2022-08-12T02:59:17.817Z,101761.69
2022-08-12T03:01:53.342Z,101758.72
2022-08-12T03:04:32.777Z,101757.63
2022-08-12T03:07:14.892Z,101753.00
2022-08-12T03:10:04.009Z,101751.13
2022-08-12T03:12:49.434Z,101755.50
2022-08-12T03:15:25.406Z,101743.16
2022-08-12T03:18:25.413Z,101753.00
2022-08-12T03:21:03.266Z,101744.00
2022-08-12T03:23:41.286Z,101748.28
2022-08-12T03:26:15.744Z,101742.03
2022-08-12T03:28:56.522Z,101746.34
2022-08-12T03:31:33.798Z,101747.03
2022-08-12T03:34:08.580Z,101743.44
2022-08-12T03:36:43.571Z,101746.78
2022-08-12T03:39:35.532Z,101746.63
2022-08-12T03:42:22.476Z,101738.53
2022-08-12T03:45:30.912Z,101743.78
2022-08-12T03:48:25.437Z,101748.91
2022-08-12T03:51:16.903Z,101748.63
2022-08-12T03:54:11.037Z,101741.38
2022-08-12T03:57:01.825Z,101743.22
2022-08-12T03:59:52.692Z,101739.75
2022-08-12T04:02:27.460Z,101734.38
2022-08-12T04:05:00.472Z,101738.91
2022-08-12T04:07:33.776Z,101740.41
2022-08-12T04:10:09.062Z,101741.09
2022-08-12T04:12:59.819Z,101735.75
2022-08-12T04:15:33.484Z,101742.13
2022-08-12T04:18:07.981Z,101741.16
2022-08-12T04:20:42.907Z,101741.00
2022-08-12T04:23:17.257Z,101739.13
2022-08-12T04:25:51.828Z,101736.34
2022-08-12T04:28:29.489Z,101742.31
2022-08-12T04:31:02.898Z,101742.31
2022-08-12T04:33:38.251Z,101742.44
2022-08-12T04:36:11.456Z,101740.88
2022-08-12T04:38:44.745Z,101746.19
2022-08-12T04:41:20.843Z,101741.09
2022-08-12T04:44:01.945Z,101746.56
2022-08-12T04:46:35.555Z,101753.63
2022-08-12T04:49:09.098Z,101755.69
2022-08-12T04:51:42.329Z,101748.78
2022-08-12T04:54:28.671Z,101755.75
2022-08-12T04:57:05.159Z,101754.94
2022-08-12T04:59:46.839Z,101747.94
2022-08-12T05:02:22.789Z,101748.91
2022-08-12T05:05:00.602Z,101752.59
2022-08-12T05:07:34.117Z,101741.38
2022-08-12T05:10:21.167Z,101742.59
2022-08-12T05:13:11.556Z,101740.38
2022-08-12T05:16:03.971Z,101747.16
2022-08-12T05:18:40.268Z,101753.16
2022-08-12T05:21:19.165Z,101752.63
2022-08-12T05:23:52.079Z,101753.72
2022-08-12T05:26:25.176Z,101755.09
2022-08-12T05:28:59.578Z,101751.22
2022-08-12T05:31:42.409Z,101747.97
2022-08-12T05:34:25.009Z,101749.28
2022-08-12T05:37:00.057Z,101745.19
2022-08-12T05:39:32.976Z,101748.91
2022-08-12T05:42:06.276Z,101750.19
2022-08-12T05:44:40.467Z,101755.84
2022-08-12T05:47:14.658Z,101759.69
2022-08-12T05:49:47.526Z,101771.09
2022-08-12T05:52:20.748Z,101763.38
2022-08-12T05:54:57.738Z,101764.75
2022-08-12T05:57:31.054Z,101770.75
2022-08-12T06:00:07.499Z,101767.38
2022-08-12T06:02:41.878Z,101770.88
2022-08-12T06:05:14.897Z,101780.38
2022-08-12T06:08:02.216Z,101778.75
2022-08-12T06:10:37.653Z,101775.00
2022-08-12T06:13:11.428Z,101780.88
2022-08-12T06:15:45.619Z,101780.66
2022-08-12T06:18:20.658Z,101778.13
2022-08-12T06:21:01.493Z,101775.72
2022-08-12T06:23:39.197Z,101779.41
2022-08-12T06:26:16.627Z,101779.59
2022-08-12T06:28:51.460Z,101779.31
2022-08-12T06:31:27.226Z,101786.56
2022-08-12T06:35:25.790Z,101786.88
2022-08-12T06:36:54.289Z,101780.50
2022-08-12T06:39:27.445Z,101787.63
2022-08-12T06:42:31.649Z,101785.66
2022-08-12T06:45:07.336Z,101783.69
2022-08-12T06:47:41.702Z,101785.16
2022-08-12T06:50:16.868Z,101790.38
2022-08-12T06:52:50.876Z,101793.63
2022-08-12T06:55:26.092Z,101789.22
2022-08-12T06:58:07.569Z,101786.88
2022-08-12T07:00:46.251Z,101789.88
2022-08-12T07:03:23.305Z,101787.50
2022-08-12T07:05:58.592Z,101786.84
2022-08-12T07:08:33.929Z,101787.28
2022-08-12T07:11:10.039Z,101781.47
2022-08-12T07:14:02.236Z,101784.31
2022-08-12T07:16:53.875Z,101786.22
2022-08-12T07:19:45.171Z,101781.91
2022-08-12T07:22:18.809Z,101779.47
2022-08-12T07:25:12.488Z,101776.16
2022-08-12T07:27:46.720Z,101781.47
2022-08-12T07:30:19.863Z,101782.88
2022-08-12T07:32:52.939Z,101783.03
2022-08-12T07:35:27.536Z,101785.03
2022-08-12T07:38:02.610Z,101785.16
2022-08-12T07:40:35.747Z,101789.03
2022-08-12T07:43:08.965Z,101782.41
2022-08-12T07:45:41.877Z,101790.53
2022-08-12T07:48:15.006Z,101797.06
2022-08-12T07:50:49.482Z,101784.88
2022-08-12T07:53:22.625Z,101789.59
2022-08-12T07:55:56.142Z,101787.88
2022-08-12T07:58:29.311Z,101796.63
2022-08-12T08:01:02.425Z,101796.66
2022-08-12T08:03:36.720Z,101795.00
2022-08-12T08:06:22.246Z,101803.28
2022-08-12T08:08:56.539Z,101805.28
2022-08-12T08:11:47.544Z,101797.34
2022-08-12T08:14:21.113Z,101805.19
2022-08-12T08:16:54.187Z,101802.28
2022-08-12T08:19:29.055Z,101807.66
2022-08-12T08:22:03.290Z,101804.53
2022-08-12T08:24:36.271Z,101805.44
2022-08-12T08:27:10.633Z,101809.84
2022-08-12T08:29:45.513Z,101808.78
2022-08-12T08:32:18.571Z,101817.88
2022-08-12T08:34:53.873Z,101823.88
2022-08-12T08:37:32.975Z,101824.34
2022-08-12T08:40:22.932Z,101833.00
2022-08-12T08:42:55.850Z,101825.72
2022-08-12T08:45:28.870Z,101813.06
2022-08-12T08:48:02.350Z,101812.53
2022-08-12T08:50:35.726Z,101810.63
2022-08-12T08:53:10.814Z,101798.72
2022-08-12T08:56:03.975Z,101803.78
2022-08-12T08:58:38.026Z,101795.53
2022-08-12T09:01:11.171Z,101805.94
2022-08-12T09:05:08.474Z,101802.41
2022-08-12T09:06:53.781Z,101797.91
2022-08-12T09:09:42.918Z,101794.41
2022-08-12T09:12:55.197Z,101805.31
2022-08-12T09:15:35.310Z,101795.50
2022-08-12T09:18:11.146Z,101795.53
2022-08-12T09:20:44.173Z,101790.25
2022-08-12T09:23:59.273Z,101788.63
2022-08-12T09:26:19.012Z,101798.63
2022-08-12T09:28:54.043Z,101791.50
2022-08-12T09:32:04.112Z,101789.75
2022-08-12T09:34:29.553Z,101787.09
2022-08-12T09:37:19.252Z,101782.66
2022-08-12T09:40:01.571Z,101773.78
2022-08-12T09:43:15.524Z,101783.56
2022-08-12T09:46:20.861Z,101784.53
2022-08-12T09:48:55.814Z,101783.66
2022-08-12T09:51:37.540Z,101780.97
2022-08-12T09:54:34.981Z,101789.13
2022-08-12T09:58:45.239Z,101779.28
2022-08-12T10:00:17.240Z,101772.16
2022-08-12T10:03:04.556Z,101771.31
2022-08-12T10:06:26.589Z,101764.16
2022-08-12T10:08:36.388Z,101757.91
2022-08-12T10:11:28.138Z,101763.25
2022-08-12T10:14:21.159Z,101744.50
2022-08-12T10:17:09.394Z,101750.78
2022-08-12T10:19:51.532Z,101752.56
2022-08-12T10:22:39.375Z,101745.44
2022-08-12T10:26:18.393Z,101736.50
2022-08-12T10:28:41.659Z,101744.53
2022-08-12T10:31:58.656Z,101733.81
2022-08-12T10:34:28.940Z,101726.66
2022-08-12T10:37:10.733Z,101729.31
2022-08-12T10:40:00.897Z,101722.19
2022-08-12T10:42:56.917Z,101716.81
2022-08-12T10:45:33.465Z,101717.72
2022-08-12T10:48:26.501Z,101717.69
2022-08-12T10:52:02.536Z,101705.19
2022-08-12T10:54:00.694Z,101705.22
2022-08-12T10:56:36.881Z,101699.88
2022-08-12T10:59:11.605Z,101696.31
2022-08-12T11:04:14.658Z,101690.94
2022-08-12T11:04:44.790Z,101690.91
2022-08-12T11:08:36.753Z,101693.59
2022-08-12T11:10:18.975Z,101698.03
2022-08-12T11:12:59.307Z,101689.09
2022-08-12T11:16:19.118Z,101681.91
2022-08-12T11:18:27.008Z,101683.75
2022-08-12T11:21:00.965Z,101677.47
2022-08-12T11:23:40.023Z,101680.13
2022-08-12T11:26:13.180Z,101680.13
2022-08-12T11:28:46.117Z,101688.16
2022-08-12T11:31:40.876Z,101686.38
2022-08-12T11:34:53.001Z,101687.25
2022-08-12T11:37:25.391Z,101677.38
2022-08-12T11:40:00.521Z,101681.00
2022-08-12T11:42:33.736Z,101673.81
2022-08-12T11:45:10.486Z,101669.34
2022-08-12T11:47:43.783Z,101665.78
2022-08-12T11:50:19.704Z,101678.28
2022-08-12T11:52:55.434Z,101670.28
2022-08-12T11:55:30.595Z,101664.88
2022-08-12T11:58:17.212Z,101672.94
2022-08-12T12:03:50.374Z,101659.50
2022-08-12T12:06:28.002Z,101656.81
2022-08-12T12:09:01.099Z,101653.22
2022-08-12T12:11:48.700Z,101652.31
2022-08-12T12:14:38.310Z,101650.50
2022-08-12T12:17:12.021Z,101654.03
2022-08-12T12:19:46.262Z,101646.94
2022-08-12T12:22:23.076Z,101657.72
2022-08-12T12:25:12.800Z,101652.34
2022-08-12T12:28:04.437Z,101652.31
2022-08-12T12:30:40.046Z,101636.22
2022-08-12T12:33:57.335Z,101646.88
2022-08-12T12:36:29.596Z,101644.09
2022-08-12T12:39:10.534Z,101636.97
2022-08-12T12:42:43.854Z,101639.63
2022-08-12T12:44:38.723Z,101634.28
2022-08-12T12:47:29.164Z,101632.50
2022-08-12T12:50:06.124Z,101616.44
2022-08-12T12:52:39.383Z,101618.22
2022-08-12T12:55:16.272Z,101620.91
2022-08-12T12:58:00.292Z,101616.34
2022-08-12T13:00:36.378Z,101619.00
2022-08-12T13:03:18.051Z,101620.78
2022-08-12T13:05:53.572Z,101610.03
2022-08-12T13:08:35.919Z,101611.88
2022-08-12T13:11:09.154Z,101613.69
2022-08-12T13:14:10.204Z,101608.19
2022-08-12T13:16:37.139Z,101608.19
2022-08-12T13:19:17.350Z,101610.00
2022-08-12T13:22:18.111Z,101611.81
2022-08-12T13:24:56.181Z,101604.63
2022-08-12T13:27:36.003Z,101610.88
2022-08-12T13:30:12.463Z,101601.06
2022-08-12T13:32:57.129Z,101603.72
2022-08-12T13:36:06.125Z,101609.09
2022-08-12T13:38:35.533Z,101590.41
2022-08-12T13:41:11.137Z,101592.28
2022-08-12T13:43:45.733Z,101596.63
2022-08-12T13:46:19.740Z,101595.72
2022-08-12T13:48:55.970Z,101586.84
2022-08-12T13:51:41.347Z,101593.00
2022-08-12T13:54:15.429Z,101600.13
2022-08-12T13:56:49.942Z,101586.72
2022-08-12T13:59:24.881Z,101586.81
2022-08-12T14:02:05.887Z,101586.72
2022-08-12T14:04:42.448Z,101580.47
2022-08-12T14:07:16.178Z,101584.91
2022-08-12T14:10:07.594Z,101575.06
2022-08-12T14:12:54.442Z,101575.91
2022-08-12T14:15:35.053Z,101570.59
2022-08-12T14:18:13.412Z,101573.31
2022-08-12T14:20:49.176Z,101563.44
2022-08-12T14:24:05.361Z,101568.72
2022-08-12T14:26:21.456Z,101570.47
2022-08-12T14:28:57.562Z,101573.19
2022-08-12T14:31:32.059Z,101576.81
2022-08-12T14:34:05.330Z,101568.78
2022-08-12T14:36:39.518Z,101569.69
2022-08-12T14:39:17.483Z,101564.31
2022-08-12T14:41:57.365Z,101563.41
2022-08-12T14:44:59.859Z,101559.75
2022-08-12T14:47:23.777Z,101565.97
2022-08-12T14:50:41.537Z,101562.47
2022-08-12T14:59:00.957Z,101547.31
2022-08-12T15:01:52.152Z,101546.50
2022-08-12T15:04:29.136Z,101542.03
2022-08-12T15:07:02.344Z,101546.44
2022-08-12T15:09:36.719Z,101547.28
2022-08-12T15:12:14.599Z,101543.66
2022-08-12T15:14:47.850Z,101538.34
2022-08-12T15:17:37.536Z,101542.88
2022-08-12T15:20:32.536Z,101545.53
2022-08-12T15:23:05.104Z,101541.97
2022-08-12T15:26:02.760Z,101533.88
2022-08-12T15:28:36.972Z,101527.75
2022-08-12T15:31:27.717Z,101531.16
2022-08-12T15:34:01.494Z,101531.94
2022-08-12T15:36:54.036Z,101537.28
2022-08-12T15:39:27.935Z,101525.88
2022-08-12T15:42:11.067Z,101523.31
2022-08-12T15:44:45.646Z,101522.38
2022-08-12T15:47:20.070Z,101525.88
2022-08-12T15:50:01.388Z,101522.25
2022-08-12T15:52:34.425Z,101520.56
2022-08-12T15:55:13.930Z,101523.22
2022-08-12T15:57:53.944Z,101514.31
2022-08-12T16:00:33.111Z,101518.78
2022-08-12T16:03:14.392Z,101513.34
2022-08-12T16:06:13.066Z,101510.75
2022-08-12T16:08:50.290Z,101506.34
2022-08-12T16:11:23.321Z,101508.13
2022-08-12T16:13:57.874Z,101500.94
2022-08-12T16:16:35.403Z,101498.25
2022-08-12T16:20:01.709Z,101501.84
2022-08-12T16:22:03.212Z,101504.50
2022-08-12T16:24:39.164Z,101504.50
2022-08-12T16:27:15.882Z,101505.47
2022-08-12T16:29:57.000Z,101493.88
2022-08-12T16:32:36.008Z,101493.91
2022-08-12T16:35:16.182Z,101494.88
2022-08-12T16:38:24.307Z,101487.75
2022-08-12T16:40:47.637Z,101483.38
2022-08-12T16:43:25.380Z,101483.47
2022-08-12T16:46:04.136Z,101472.75
2022-08-12T16:48:39.443Z,101484.41
2022-08-12T16:51:12.917Z,101487.09
2022-08-12T16:53:46.474Z,101474.59
2022-08-12T16:56:19.680Z,101473.69
2022-08-12T16:58:53.498Z,101479.97
2022-08-12T17:01:26.395Z,101488.03
2022-08-12T17:04:08.240Z,101492.47
2022-08-12T17:06:43.537Z,101480.03
2022-08-12T17:09:18.445Z,101472.91
2022-08-12T17:11:52.746Z,101480.94
2022-08-12T17:14:25.784Z,101480.94
2022-08-12T17:17:18.591Z,101486.31
2022-08-12T17:20:35.365Z,101472.00
2022-08-12T17:23:00.062Z,101480.94
2022-08-12T17:25:34.305Z,101477.38
2022-08-12T17:28:07.313Z,101482.75
2022-08-12T17:30:43.139Z,101484.53
2022-08-12T17:33:24.933Z,101473.81
2022-08-12T17:36:05.713Z,101477.38
2022-08-12T17:38:38.868Z,101480.03
2022-08-12T17:41:23.312Z,101472.88
2022-08-12T17:44:07.961Z,101476.44
2022-08-12T17:46:41.038Z,101475.53
2022-08-12T17:49:19.335Z,101485.31
2022-08-12T17:52:10.277Z,101486.22
2022-08-12T17:54:43.426Z,101494.19
2022-08-12T17:57:20.275Z,101494.19
2022-08-12T17:59:58.081Z,101492.38
2022-08-12T18:02:34.638Z,101494.13
2022-08-12T18:05:09.939Z,101502.16
2022-08-12T18:07:46.110Z,101505.72
2022-08-12T18:10:35.125Z,101505.66
2022-08-12T18:13:09.337Z,101501.13
2022-08-12T18:16:05.492Z,101495.75
2022-08-12T18:18:36.272Z,101500.13
2022-08-12T18:21:09.537Z,101496.56
2022-08-12T18:23:50.774Z,101505.44
2022-08-12T18:26:27.494Z,101507.22
2022-08-12T18:29:00.935Z,101506.31
2022-08-12T18:31:44.160Z,101498.19
2022-08-12T18:34:28.512Z,101507.91
2022-08-12T18:37:26.686Z,101501.56
2022-08-12T18:40:17.763Z,101506.88
2022-08-12T18:42:54.125Z,101507.69
2022-08-12T18:45:47.163Z,101508.53
2022-08-12T18:48:25.265Z,101515.72
2022-08-12T18:51:04.400Z,101518.28
2022-08-12T18:54:07.504Z,101513.75
2022-08-12T18:56:37.173Z,101522.56
2022-08-12T18:59:10.694Z,101518.06
2022-08-12T19:02:22.225Z,101519.81
2022-08-12T19:04:39.057Z,101526.78
2022-08-12T19:07:19.254Z,101516.91
2022-08-12T19:09:58.726Z,101530.19
2022-08-12T19:12:57.264Z,101521.31
2022-08-12T19:15:31.664Z,101522.91
2022-08-12T19:18:12.351Z,101528.16
2022-08-12T19:20:48.107Z,101523.59
2022-08-12T19:23:23.649Z,101524.59
2022-08-12T19:26:12.338Z,101518.28
2022-08-12T19:28:49.536Z,101527.91
2022-08-12T19:31:56.387Z,101531.38
2022-08-12T19:38:03.040Z,101529.28
2022-08-12T19:40:32.466Z,101532.75
2022-08-12T19:43:18.886Z,101522.91
2022-08-12T19:45:57.116Z,101527.28
2022-08-12T19:48:32.680Z,101525.44
2022-08-12T19:51:09.050Z,101529.75
2022-08-12T19:53:57.257Z,101533.28
2022-08-12T19:56:32.281Z,101530.56
2022-08-12T19:59:22.807Z,101526.88
2022-08-12T20:02:02.394Z,101528.47
2022-08-12T20:04:38.855Z,101526.69
2022-08-12T20:07:23.517Z,101529.22
2022-08-12T20:09:57.535Z,101533.53
2022-08-12T20:12:44.681Z,101535.16
2022-08-12T20:15:45.051Z,101537.78
2022-08-12T20:18:44.154Z,101541.22
2022-08-12T20:21:15.050Z,101533.97
2022-08-12T20:23:59.697Z,101534.72
2022-08-12T20:26:34.827Z,101537.34
2022-08-12T20:29:08.143Z,101539.97
2022-08-12T20:31:43.142Z,101536.38
2022-08-12T20:34:18.008Z,101533.59
2022-08-12T20:36:57.307Z,101536.16
2022-08-12T20:39:53.342Z,101533.28
2022-08-12T20:42:32.032Z,101543.97
2022-08-12T20:45:06.970Z,101541.25
2022-08-12T20:47:46.680Z,101543.78
2022-08-12T20:50:29.710Z,101537.47
2022-08-12T20:53:02.945Z,101535.66
2022-08-12T20:55:44.328Z,101545.44
2022-08-12T20:58:29.952Z,101536.38
2022-08-12T21:01:03.789Z,101535.38
2022-08-12T21:04:02.280Z,101537.00
2022-08-12T21:06:56.048Z,101534.19
2022-08-12T21:09:32.728Z,101534.09
2022-08-12T21:12:31.156Z,101530.44
2022-08-12T21:15:24.281Z,101534.72
2022-08-12T21:18:09.806Z,101539.03
2022-08-12T21:20:54.731Z,101531.72
2022-08-12T21:23:30.831Z,101531.63
2022-08-12T21:26:16.438Z,101537.78
2022-08-12T21:28:56.695Z,101532.44
2022-08-12T21:32:39.156Z,101535.06
2022-08-12T21:34:31.377Z,101539.38
2022-08-12T21:37:26.365Z,101539.22
2022-08-12T21:39:59.443Z,101537.34
2022-08-12T21:42:47.324Z,101542.47
2022-08-12T21:45:47.899Z,101538.91
2022-08-12T21:48:14.927Z,101538.75
2022-08-12T21:50:51.096Z,101541.34
2022-08-12T21:54:06.058Z,101537.66
2022-08-12T21:56:34.500Z,101536.69
2022-08-12T21:59:14.713Z,101538.41
2022-08-12T22:01:49.689Z,101537.41
2022-08-12T22:04:40.656Z,101533.75
2022-08-12T22:07:26.796Z,101534.50
2022-08-12T22:10:01.373Z,101536.25
2022-08-12T22:12:37.817Z,101546.75
2022-08-12T22:15:21.345Z,101531.63
2022-08-12T22:17:56.994Z,101548.31
2022-08-12T22:20:31.713Z,101546.41
2022-08-12T22:23:05.181Z,101545.44
2022-08-12T22:25:40.666Z,101545.44
2022-08-12T22:28:39.001Z,101553.38
2022-08-12T22:31:15.292Z,101548.81
2022-08-12T22:33:54.503Z,101547.88
2022-08-12T22:36:33.179Z,101540.69
2022-08-12T22:39:08.751Z,101536.19
2022-08-12T22:42:01.172Z,101537.84
2022-08-12T22:44:54.662Z,101538.69
2022-08-12T22:47:54.436Z,101535.00
2022-08-12T22:50:29.677Z,101537.59
2022-08-12T22:53:16.234Z,101541.88
2022-08-12T22:55:59.846Z,101545.22
2022-08-12T22:58:40.518Z,101547.06
2022-08-12T23:01:51.850Z,101546.97
2022-08-12T23:04:15.993Z,101547.88
2022-08-12T23:07:05.557Z,101545.13
2022-08-12T23:09:48.073Z,101542.28
2022-08-12T23:12:37.401Z,101543.91
2022-08-12T23:15:14.588Z,101542.84
2022-08-12T23:17:48.945Z,101541.88
2022-08-12T23:20:27.090Z,101548.78
2022-08-12T23:23:03.108Z,101548.59
2022-08-12T23:25:55.189Z,101538.66
2022-08-12T23:28:53.295Z,101540.22
2022-08-12T23:32:01.857Z,101540.06
2022-08-12T23:34:21.295Z,101545.19
2022-08-12T23:37:06.346Z,101544.06
2022-08-12T23:40:14.411Z,101541.28
2022-08-12T23:42:33.888Z,101543.00
2022-08-12T23:45:18.924Z,101557.97
2022-08-12T23:47:54.388Z,101557.06
2022-08-12T23:50:33.928Z,101557.03
2022-08-12T23:53:17.026Z,101549.94
2022-08-12T23:55:56.915Z,101548.09
2022-08-12T23:58:30.486Z,101549.81
